KRGA

Central Kentucky Regional Airport

Richmond, Kentucky, USA
METAR KRGA 151455Z AUTO 21004KT 10SM CLR 24/20 A3010 RMK AO2
Observed Flight Rules
Aug-15 @ 14:55 UTC (6 minutes ago) Visual Flight Rules
Wind Visibility Clouds
210° at 4 knots 10 miles
  • Clear skies
Temperatures Readings
Current 24°C / 75°F
Dewpoint 20°C / 68°F
Humidity 78%
Altimeter 30.1" Hg
Pressure 1019 hPa
Elevation 305
METAR KRGA 151455Z AUTO 21004KT 10SM CLR 24/20 A3010 RMK AO2
Observed Flight Rules
Aug-15 @ 14:55 UTC
(6 minutes ago)
VFR
Wind Visibility
210° at 4 knots 10 miles
Clouds
  • Clear skies
Temperature Dewpoint
24°C / 75°F 20°C / 68°F
Humidity Altimeter Pressure
78% 30.1" Hg 1019 hPa